Terminal Aerodrome Forecast
Issued by NWS

Home | Current Version | Previous Version | Text Only | Print | Product List | Glossary On
Versions: 1 2 3 4 5 6 7 8 9 10 11 12 13 14 15
000
FTUS44 KEPZ 312300 RRA
TAFLRU
TAF
KLRU 312341Z 0100/0124 13007KT P6SM VCTS SCT060CB BKN100
     FM010800 16007KT P6SM VCSH SCT030 BKN120
      TEMPO 0108/0112 5SM -SHRA BKN040 BKN100 OVC220
     FM011800 10008KT P6SM SCT040 SCT120 BKN220=

USA.gov is the U.S. government's official web portal to all federal, state and local government web resources and services.